Time;durP1;ratioP1;P1;durP2;ratioP2;P2;SDS_P1;SDS_P2;PMS_P1;PMS_P2;Temp;Humidity;BMP_temperature;BMP_pressure;BME280_temperature;BME280_humidity;BME280_pressure;Samples;Min_cycle;Max_cycle;Signal;HPM_P1;HPM_P2
2021/10/23 00:00:07;;;;;;;8.50;4.40;;;2.40;99.90;;;;;;4952992;28;20181;-60
2021/10/23 00:02:33;;;;;;;7.83;4.60;;;2.40;99.90;;;;;;4962291;28;20186;-60
2021/10/23 00:04:59;;;;;;;7.03;4.47;;;2.40;99.90;;;;;;4947424;28;20441;-60
2021/10/23 00:07:24;;;;;;;9.07;5.10;;;2.30;99.90;;;;;;4950480;28;20236;-60
2021/10/23 00:09:50;;;;;;;11.70;4.93;;;2.30;99.90;;;;;;4953142;28;20747;-60
2021/10/23 00:12:15;;;;;;;10.80;5.47;;;2.30;99.90;;;;;;4938661;29;20217;-59
2021/10/23 00:14:41;;;;;;;8.23;4.40;;;2.20;99.90;;;;;;4943395;28;20183;-60
2021/10/23 00:17:07;;;;;;;10.40;5.10;;;2.20;99.90;;;;;;4940270;28;20182;-60
2021/10/23 00:19:32;;;;;;;11.43;5.33;;;2.10;99.90;;;;;;4949883;28;20195;-60
2021/10/23 00:21:58;;;;;;;7.87;4.37;;;2.10;99.90;;;;;;4965717;28;20194;-59
2021/10/23 00:24:24;;;;;;;6.50;4.63;;;2.10;99.90;;;;;;4951866;28;20178;-59
2021/10/23 00:26:50;;;;;;;10.70;5.50;;;2.10;99.90;;;;;;4963665;28;20181;-59
2021/10/23 00:29:15;;;;;;;13.63;6.30;;;2.10;99.90;;;;;;4952908;28;20460;-59
2021/10/23 00:31:41;;;;;;;11.00;7.23;;;2.10;99.90;;;;;;4954489;28;20214;-58
2021/10/23 00:34:07;;;;;;;13.73;5.10;;;2.10;99.90;;;;;;4952890;29;20217;-58
2021/10/23 00:36:32;;;;;;;11.53;5.10;;;2.10;99.90;;;;;;4944885;28;20179;-59
2021/10/23 00:38:58;;;;;;;11.70;5.07;;;2.10;99.90;;;;;;4948526;28;20190;-59
2021/10/23 00:41:24;;;;;;;12.20;5.00;;;2.10;99.90;;;;;;4937835;29;20289;-59
2021/10/23 00:43:50;;;;;;;8.53;4.70;;;2.10;99.90;;;;;;4945603;28;20211;-60
2021/10/23 00:46:16;;;;;;;13.73;5.07;;;2.10;99.90;;;;;;4951376;29;20727;-59
2021/10/23 00:48:42;;;;;;;8.50;4.33;;;2.10;99.90;;;;;;4952425;28;20182;-59
2021/10/23 00:51:15;;;;;;;6.50;4.57;;;2.10;99.90;;;;;;4945152;29;20441;-60
2021/10/23 00:53:41;;;;;;;8.13;4.37;;;2.10;99.90;;;;;;4963300;28;20818;-60
2021/10/23 00:56:07;;;;;;;6.67;4.20;;;2.10;99.90;;;;;;4944468;29;20422;-59
2021/10/23 00:58:33;;;;;;;7.30;4.30;;;2.10;99.90;;;;;;4950838;29;20818;-60
2021/10/23 01:00:59;;;;;;;11.90;5.00;;;2.20;99.90;;;;;;4952420;28;20569;-60
2021/10/23 01:03:24;;;;;;;11.53;4.90;;;2.10;99.90;;;;;;4960829;28;20958;-60
2021/10/23 01:05:50;;;;;;;5.47;4.83;;;2.20;99.90;;;;;;4946076;28;20182;-60
2021/10/23 01:08:16;;;;;;;11.23;5.50;;;2.20;99.90;;;;;;4938840;28;20758;-59
2021/10/23 01:10:42;;;;;;;8.30;4.30;;;2.20;99.90;;;;;;4941276;28;20270;-59
2021/10/23 01:13:08;;;;;;;9.67;4.33;;;2.20;99.90;;;;;;4947102;29;20178;-60
2021/10/23 01:15:34;;;;;;;6.73;4.77;;;2.20;99.90;;;;;;4948711;28;20508;-60
2021/10/23 01:18:02;;;;;;;8.00;5.13;;;2.20;99.90;;;;;;4938204;28;20923;-60
2021/10/23 01:20:30;;;;;;;9.20;5.20;;;2.10;99.90;;;;;;4945070;28;20498;-59
2021/10/23 01:22:56;;;;;;;11.17;5.30;;;2.10;99.90;;;;;;4950414;28;20458;-60
2021/10/23 01:25:25;;;;;;;11.87;5.20;;;2.10;99.90;;;;;;4948838;29;20427;-60
2021/10/23 01:27:55;;;;;;;8.60;5.20;;;2.10;99.90;;;;;;4949815;28;20889;-60
2021/10/23 01:30:23;;;;;;;8.77;5.40;;;2.10;99.90;;;;;;4949002;28;20439;-60
2021/10/23 01:32:49;;;;;;;13.43;5.10;;;2.10;99.90;;;;;;4966793;28;20440;-58
2021/10/23 01:35:15;;;;;;;9.90;4.97;;;2.10;99.90;;;;;;4950839;28;20973;-57
2021/10/23 01:37:44;;;;;;;11.00;5.17;;;2.10;99.90;;;;;;4951240;28;20950;-59
2021/10/23 01:40:13;;;;;;;13.63;5.23;;;2.10;99.90;;;;;;4954274;28;20441;-59
2021/10/23 01:42:40;;;;;;;7.60;4.70;;;2.10;99.90;;;;;;4952404;29;21131;-59
2021/10/23 01:45:07;;;;;;;16.83;8.33;;;2.10;99.90;;;;;;4946402;28;20451;-59
2021/10/23 01:47:32;;;;;;;10.87;8.20;;;2.10;99.90;;;;;;4934599;28;20527;-59
2021/10/23 01:49:58;;;;;;;11.57;6.53;;;2.00;99.90;;;;;;4946618;29;20490;-58
2021/10/23 01:52:24;;;;;;;10.33;6.60;;;2.10;99.90;;;;;;4946496;29;20189;-60
2021/10/23 01:54:50;;;;;;;6.17;5.13;;;2.00;99.90;;;;;;4947138;28;20465;-59
2021/10/23 01:57:15;;;;;;;8.90;5.10;;;2.00;99.90;;;;;;4958322;28;20688;-59
2021/10/23 01:59:41;;;;;;;10.00;5.33;;;2.00;99.90;;;;;;4962156;28;20298;-60
2021/10/23 02:02:07;;;;;;;7.47;5.00;;;2.00;99.90;;;;;;4949675;28;20636;-59
2021/10/23 02:04:32;;;;;;;9.97;4.70;;;2.00;99.90;;;;;;4948189;29;20191;-60
2021/10/23 02:06:58;;;;;;;11.87;5.00;;;2.00;99.90;;;;;;4950055;28;20178;-59
2021/10/23 02:09:24;;;;;;;9.33;5.00;;;2.10;99.90;;;;;;4956143;28;20265;-59
2021/10/23 02:11:49;;;;;;;9.00;4.70;;;2.10;99.90;;;;;;4950717;28;20198;-60
2021/10/23 02:14:15;;;;;;;6.43;5.00;;;2.10;99.90;;;;;;4946554;28;20183;-60
2021/10/23 02:16:41;;;;;;;6.97;4.03;;;2.10;99.90;;;;;;4947040;28;20200;-59
2021/10/23 02:19:07;;;;;;;14.23;4.47;;;2.10;99.90;;;;;;4945789;28;20192;-60
2021/10/23 02:21:32;;;;;;;8.67;4.80;;;2.10;99.90;;;;;;4944591;29;21033;-59
2021/10/23 02:23:58;;;;;;;10.47;4.53;;;2.10;99.90;;;;;;4935919;29;20171;-59
2021/10/23 02:26:24;;;;;;;8.40;5.30;;;2.20;99.90;;;;;;4949871;28;20215;-60
2021/10/23 02:28:49;;;;;;;6.87;4.67;;;2.20;99.90;;;;;;4945854;28;20210;-59
2021/10/23 02:31:15;;;;;;;6.80;4.60;;;2.20;99.90;;;;;;4947561;28;20613;-59
2021/10/23 02:33:41;;;;;;;10.63;4.77;;;2.20;99.90;;;;;;4947224;29;20903;-60
2021/10/23 02:36:06;;;;;;;6.97;4.27;;;2.20;99.90;;;;;;4946573;28;20183;-59
2021/10/23 02:38:34;;;;;;;11.03;4.50;;;2.20;99.90;;;;;;4951761;29;20181;-58
2021/10/23 02:41:00;;;;;;;9.63;4.57;;;2.20;99.90;;;;;;4951069;29;20269;-59
2021/10/23 02:43:26;;;;;;;16.90;4.80;;;2.30;99.90;;;;;;4949118;28;20660;-60
2021/10/23 02:45:52;;;;;;;8.07;4.30;;;2.30;99.90;;;;;;4948057;28;20635;-60
2021/10/23 02:48:18;;;;;;;10.23;5.20;;;2.20;99.90;;;;;;4948810;28;20420;-60
2021/10/23 02:50:44;;;;;;;12.50;5.03;;;2.20;99.90;;;;;;4966612;28;20988;-60
2021/10/23 02:53:09;;;;;;;13.03;4.80;;;2.20;99.90;;;;;;4936505;29;20183;-59
2021/10/23 02:55:36;;;;;;;8.33;5.20;;;2.20;99.90;;;;;;4942545;28;20554;-59
2021/10/23 02:58:02;;;;;;;6.80;4.57;;;2.20;99.90;;;;;;4949892;28;20540;-60
2021/10/23 03:00:29;;;;;;;9.00;5.03;;;2.20;99.90;;;;;;4942347;28;20451;-60
2021/10/23 03:02:55;;;;;;;5.40;4.03;;;2.20;99.90;;;;;;4941600;29;20605;-59
2021/10/23 03:05:21;;;;;;;12.40;4.60;;;2.10;99.90;;;;;;4947853;28;20434;-57
2021/10/23 03:07:46;;;;;;;8.03;4.80;;;2.10;99.90;;;;;;4951878;29;20423;-59
2021/10/23 03:10:13;;;;;;;7.90;4.47;;;2.10;99.90;;;;;;4950536;28;21291;-59
2021/10/23 03:12:39;;;;;;;9.10;4.53;;;2.10;99.90;;;;;;4947120;28;20221;-59
2021/10/23 03:15:06;;;;;;;7.67;4.00;;;2.10;99.90;;;;;;4947791;28;20965;-60
2021/10/23 03:17:32;;;;;;;7.40;3.83;;;2.10;99.90;;;;;;4946084;29;20188;-59
2021/10/23 03:19:58;;;;;;;7.00;3.60;;;2.10;99.90;;;;;;4941559;28;20446;-60
2021/10/23 03:22:24;;;;;;;5.57;3.83;;;2.10;99.90;;;;;;4943629;29;20204;-60
2021/10/23 03:24:50;;;;;;;6.60;3.93;;;2.20;99.90;;;;;;4936317;28;20676;-60
2021/10/23 03:27:18;;;;;;;9.53;4.30;;;2.20;99.90;;;;;;4949046;28;20430;-60
2021/10/23 03:29:45;;;;;;;11.13;4.57;;;2.20;99.90;;;;;;4944537;29;20175;-59
2021/10/23 03:32:11;;;;;;;7.63;4.13;;;2.20;99.90;;;;;;4949034;28;20441;-60
2021/10/23 03:34:37;;;;;;;8.00;4.43;;;2.20;99.90;;;;;;4945523;29;20445;-60
2021/10/23 03:37:03;;;;;;;14.03;4.47;;;2.20;99.90;;;;;;4949279;28;20211;-60
2021/10/23 03:39:29;;;;;;;11.47;5.03;;;2.20;99.90;;;;;;4949464;29;20442;-59
2021/10/23 03:41:54;;;;;;;8.63;4.20;;;2.20;99.90;;;;;;4951192;29;20558;-60
2021/10/23 03:44:20;;;;;;;10.10;5.60;;;2.20;99.90;;;;;;4943304;28;20695;-60
2021/10/23 03:46:46;;;;;;;11.33;4.93;;;2.10;99.90;;;;;;4949081;28;20184;-60
2021/10/23 03:49:12;;;;;;;8.03;4.97;;;2.10;99.90;;;;;;4951608;28;20266;-59
2021/10/23 03:51:38;;;;;;;10.60;5.03;;;2.10;99.90;;;;;;4965805;28;20483;-60
2021/10/23 03:54:03;;;;;;;7.23;4.87;;;2.10;99.90;;;;;;4948455;28;20181;-59
2021/10/23 03:56:29;;;;;;;5.97;4.67;;;2.20;99.90;;;;;;4950039;28;20260;-60
2021/10/23 03:58:54;;;;;;;5.20;4.37;;;2.20;99.90;;;;;;4945339;29;20270;-60
2021/10/23 04:01:20;;;;;;;6.87;4.17;;;2.30;99.90;;;;;;4947609;28;20194;-59
2021/10/23 04:03:46;;;;;;;8.17;4.50;;;2.30;99.90;;;;;;4951013;28;20249;-60
2021/10/23 04:06:13;;;;;;;7.50;4.97;;;2.40;99.90;;;;;;4950972;28;20818;-59
2021/10/23 04:08:39;;;;;;;12.50;5.37;;;2.40;99.90;;;;;;4937133;28;20182;-59
2021/10/23 04:11:05;;;;;;;11.47;5.60;;;2.40;99.90;;;;;;4948806;28;20442;-61
2021/10/23 04:13:31;;;;;;;11.80;5.00;;;2.40;99.90;;;;;;4950161;29;20177;-60
2021/10/23 04:15:56;;;;;;;16.20;6.20;;;2.40;99.90;;;;;;4951480;29;20170;-62
2021/10/23 04:18:22;;;;;;;11.07;5.10;;;2.40;99.90;;;;;;4963240;28;20301;-59
2021/10/23 04:20:48;;;;;;;11.30;5.50;;;2.40;99.90;;;;;;4937891;29;20189;-59
2021/10/23 04:23:13;;;;;;;12.40;5.80;;;2.30;99.90;;;;;;4939739;29;20742;-60
2021/10/23 04:25:39;;;;;;;11.97;5.00;;;2.30;99.90;;;;;;4951268;28;20182;-60
2021/10/23 04:28:05;;;;;;;9.00;5.00;;;2.30;99.90;;;;;;4954407;28;20163;-58
2021/10/23 04:30:30;;;;;;;9.17;5.33;;;2.30;99.90;;;;;;4951398;28;20206;-59
2021/10/23 04:32:56;;;;;;;10.93;4.93;;;2.30;99.90;;;;;;4962358;28;20753;-58
2021/10/23 04:35:22;;;;;;;10.37;4.50;;;2.30;99.90;;;;;;4949138;28;20245;-60
2021/10/23 04:37:48;;;;;;;6.57;4.37;;;2.30;99.90;;;;;;4967053;28;20177;-59
2021/10/23 04:40:13;;;;;;;6.53;4.73;;;2.30;99.90;;;;;;4944497;29;20177;-59
2021/10/23 04:42:39;;;;;;;12.60;4.93;;;2.30;99.90;;;;;;4945349;28;20864;-60
2021/10/23 04:45:06;;;;;;;18.30;5.17;;;2.20;99.90;;;;;;4948717;28;20170;-59
2021/10/23 04:47:32;;;;;;;10.47;4.70;;;2.30;99.90;;;;;;4954550;28;20173;-60
2021/10/23 04:49:57;;;;;;;9.50;5.00;;;2.30;99.90;;;;;;4948892;28;20406;-61
2021/10/23 04:52:23;;;;;;;8.20;5.40;;;2.30;99.90;;;;;;4946165;28;20433;-60
2021/10/23 04:54:49;;;;;;;11.43;6.40;;;2.40;99.90;;;;;;4967636;28;20655;-59
2021/10/23 04:57:14;;;;;;;13.83;5.77;;;2.40;99.90;;;;;;4957061;28;20179;-60
2021/10/23 04:59:40;;;;;;;12.07;6.00;;;2.40;99.90;;;;;;4942513;28;20187;-59
2021/10/23 05:02:06;;;;;;;8.73;6.00;;;2.30;99.90;;;;;;4953306;28;20205;-60
2021/10/23 05:04:31;;;;;;;11.53;4.93;;;2.30;99.90;;;;;;4950188;29;20228;-60
2021/10/23 05:06:57;;;;;;;10.97;5.37;;;2.40;99.90;;;;;;4938291;28;20518;-60
2021/10/23 05:09:22;;;;;;;13.80;6.13;;;2.40;99.90;;;;;;4947129;29;20181;-59
2021/10/23 05:11:48;;;;;;;8.43;5.80;;;2.40;99.90;;;;;;4953630;28;20814;-60
2021/10/23 05:14:14;;;;;;;8.57;5.63;;;2.40;99.90;;;;;;4958784;28;20455;-58
2021/10/23 05:16:39;;;;;;;15.00;5.80;;;2.40;99.90;;;;;;4948856;28;20715;-60
2021/10/23 05:19:05;;;;;;;12.13;5.87;;;2.40;99.90;;;;;;4951706;28;20693;-60
2021/10/23 05:21:31;;;;;;;7.93;4.83;;;2.40;99.90;;;;;;4944849;28;20198;-60
2021/10/23 05:23:58;;;;;;;8.10;4.93;;;2.40;99.90;;;;;;4942715;28;20501;-60
2021/10/23 05:26:24;;;;;;;6.27;5.00;;;2.40;99.90;;;;;;4936046;28;20176;-60
2021/10/23 05:28:50;;;;;;;13.00;5.27;;;2.40;99.90;;;;;;4935262;29;20415;-60
2021/10/23 05:31:16;;;;;;;11.00;5.50;;;2.40;99.90;;;;;;4944464;28;20540;-59
2021/10/23 05:33:41;;;;;;;16.73;5.20;;;2.40;99.90;;;;;;4946958;28;20174;-59
2021/10/23 05:36:07;;;;;;;7.93;5.20;;;2.40;99.90;;;;;;4947613;28;20167;-60
2021/10/23 05:38:33;;;;;;;11.90;5.13;;;2.40;99.90;;;;;;4949860;29;20174;-61
2021/10/23 05:40:58;;;;;;;13.30;7.30;;;2.40;99.90;;;;;;4947809;29;20194;-60
2021/10/23 05:43:24;;;;;;;8.80;5.73;;;2.30;99.90;;;;;;4942902;28;20659;-61
2021/10/23 05:45:49;;;;;;;15.33;6.37;;;2.40;99.90;;;;;;4946672;28;20172;-59
2021/10/23 05:48:15;;;;;;;8.83;5.50;;;2.40;99.90;;;;;;4943988;28;20248;-60
2021/10/23 05:50:41;;;;;;;11.37;5.53;;;2.40;99.90;;;;;;4946699;28;20193;-60
2021/10/23 05:53:07;;;;;;;9.23;5.97;;;2.30;99.90;;;;;;4940502;29;20435;-60
2021/10/23 05:55:32;;;;;;;11.67;5.47;;;2.30;99.90;;;;;;4950915;28;20422;-60
2021/10/23 05:58:01;;;;;;;16.43;5.93;;;2.30;99.90;;;;;;4937070;29;20201;-60
2021/10/23 06:00:26;;;;;;;7.27;5.23;;;2.30;99.90;;;;;;4943939;28;20747;-60
2021/10/23 06:02:53;;;;;;;9.23;5.60;;;2.30;99.90;;;;;;4951786;29;20489;-59
2021/10/23 06:05:18;;;;;;;11.17;6.50;;;2.30;99.90;;;;;;4949181;28;20175;-60
2021/10/23 06:07:44;;;;;;;21.33;6.77;;;2.30;99.90;;;;;;4943763;29;20407;-59
2021/10/23 06:10:12;;;;;;;16.40;6.20;;;2.30;99.90;;;;;;4945231;28;20241;-60
2021/10/23 06:12:38;;;;;;;14.47;5.37;;;2.30;99.90;;;;;;4948509;28;20199;-60
2021/10/23 06:15:05;;;;;;;9.47;6.33;;;2.30;99.90;;;;;;4949464;28;20512;-60
2021/10/23 06:17:32;;;;;;;10.40;5.93;;;2.40;99.90;;;;;;4952102;28;20452;-60
2021/10/23 06:19:57;;;;;;;13.03;6.50;;;2.40;99.90;;;;;;4948630;28;20513;-60
2021/10/23 06:22:23;;;;;;;12.60;6.73;;;2.40;99.90;;;;;;4950845;29;20541;-60
2021/10/23 06:24:49;;;;;;;11.80;5.57;;;2.40;99.90;;;;;;4946175;29;20209;-60
2021/10/23 06:27:15;;;;;;;10.13;5.30;;;2.40;99.90;;;;;;4950211;29;20170;-60
2021/10/23 06:29:40;;;;;;;12.37;6.47;;;2.40;99.90;;;;;;4947919;28;20258;-60
2021/10/23 06:32:06;;;;;;;11.17;6.30;;;2.40;99.90;;;;;;4979923;23;20504;-58
2021/10/23 06:34:32;;;;;;;12.57;6.00;;;2.50;99.90;;;;;;4970547;28;20177;-60
2021/10/23 06:36:58;;;;;;;9.50;6.77;;;2.50;99.90;;;;;;4966577;28;20488;-59
2021/10/23 06:39:23;;;;;;;11.17;6.40;;;2.50;99.90;;;;;;4964890;28;20713;-58
2021/10/23 06:41:49;;;;;;;12.13;6.73;;;2.50;99.90;;;;;;4968449;28;20611;-54
2021/10/23 06:44:15;;;;;;;12.90;6.13;;;2.50;99.90;;;;;;4983362;28;20580;-58
2021/10/23 06:46:41;;;;;;;6.80;5.10;;;2.50;99.90;;;;;;4971206;28;20554;-58
2021/10/23 06:49:08;;;;;;;11.93;5.97;;;2.50;99.90;;;;;;4977686;28;20535;-59
2021/10/23 06:51:34;;;;;;;12.50;5.43;;;2.50;99.90;;;;;;4977582;28;20196;-60
2021/10/23 06:54:00;;;;;;;10.37;5.53;;;2.50;99.90;;;;;;4969061;28;20461;-59
2021/10/23 06:56:27;;;;;;;9.87;5.00;;;2.50;99.90;;;;;;4966798;28;20452;-60
2021/10/23 06:58:54;;;;;;;8.27;5.50;;;2.50;99.90;;;;;;4976277;28;20513;-61
2021/10/23 07:01:20;;;;;;;9.47;5.43;;;2.50;99.90;;;;;;4971498;28;21016;-60
2021/10/23 07:03:46;;;;;;;11.57;6.50;;;2.60;99.90;;;;;;4972380;28;20439;-58
2021/10/23 07:06:11;;;;;;;9.60;5.00;;;2.60;99.90;;;;;;4967295;28;20443;-56
2021/10/23 07:08:37;;;;;;;8.10;4.60;;;2.70;99.90;;;;;;4962683;28;20179;-56
2021/10/23 07:11:03;;;;;;;7.57;5.50;;;2.70;99.90;;;;;;4964618;28;20193;-56
2021/10/23 07:13:28;;;;;;;12.13;5.90;;;2.80;99.90;;;;;;4987354;28;20205;-56
2021/10/23 07:15:54;;;;;;;14.40;6.30;;;2.70;99.90;;;;;;4980154;28;20221;-62
2021/10/23 07:18:20;;;;;;;8.60;5.57;;;2.80;99.90;;;;;;4967760;28;20279;-58
2021/10/23 07:20:45;;;;;;;10.07;6.17;;;2.80;99.90;;;;;;4955679;28;20197;-58
2021/10/23 07:23:11;;;;;;;14.43;6.00;;;2.90;99.90;;;;;;4960751;28;20210;-58
2021/10/23 07:25:37;;;;;;;14.10;6.60;;;3.00;99.90;;;;;;4963757;28;20197;-59
2021/10/23 07:28:03;;;;;;;13.50;6.30;;;3.00;99.90;;;;;;4968069;28;20201;-59
2021/10/23 07:30:28;;;;;;;9.57;6.47;;;3.10;99.90;;;;;;4969540;28;20523;-60
2021/10/23 07:32:55;;;;;;;13.90;6.03;;;3.20;99.90;;;;;;4960860;28;20249;-58
2021/10/23 07:35:20;;;;;;;12.27;6.23;;;3.20;99.90;;;;;;4962874;28;20212;-59
2021/10/23 07:37:46;;;;;;;9.97;6.10;;;3.30;99.90;;;;;;4964197;28;20440;-58
2021/10/23 07:40:13;;;;;;;10.40;7.07;;;3.40;99.90;;;;;;4962779;28;20688;-58
2021/10/23 07:42:40;;;;;;;15.37;7.83;;;3.50;99.90;;;;;;4966518;28;20219;-59
2021/10/23 07:45:07;;;;;;;11.67;7.07;;;3.50;99.90;;;;;;4960593;28;20490;-59
2021/10/23 07:47:33;;;;;;;8.53;5.83;;;3.60;99.90;;;;;;4962036;28;20437;-57
2021/10/23 07:49:59;;;;;;;7.60;5.70;;;3.70;99.90;;;;;;4967695;28;20425;-60
2021/10/23 07:52:25;;;;;;;9.03;6.30;;;3.70;99.90;;;;;;4969531;28;20437;-58
2021/10/23 07:54:51;;;;;;;10.73;7.20;;;3.70;99.90;;;;;;4968502;28;20186;-58
2021/10/23 07:57:17;;;;;;;11.50;7.30;;;3.80;99.90;;;;;;4966550;28;20452;-60
2021/10/23 07:59:44;;;;;;;15.10;6.10;;;3.80;99.90;;;;;;4968005;28;20179;-58
2021/10/23 08:02:10;;;;;;;10.63;5.73;;;3.90;99.90;;;;;;4968221;28;20209;-58
2021/10/23 08:04:36;;;;;;;10.90;6.20;;;3.90;99.90;;;;;;4964670;28;20792;-58
2021/10/23 08:07:03;;;;;;;14.37;7.70;;;4.00;99.90;;;;;;4962489;28;20434;-58
2021/10/23 08:09:33;;;;;;;10.17;7.20;;;4.10;99.90;;;;;;4971769;28;20192;-59
2021/10/23 08:11:59;;;;;;;13.70;6.77;;;4.20;99.90;;;;;;4965413;28;20469;-59
2021/10/23 08:14:25;;;;;;;10.90;6.30;;;4.30;99.90;;;;;;4970704;28;20521;-59
2021/10/23 08:16:51;;;;;;;8.60;6.20;;;4.30;99.90;;;;;;4969058;28;20944;-58
2021/10/23 08:19:17;;;;;;;13.53;5.80;;;4.40;99.90;;;;;;4964992;28;20436;-59
2021/10/23 08:21:43;;;;;;;7.60;5.07;;;4.50;99.90;;;;;;4969851;28;20483;-58
2021/10/23 08:24:10;;;;;;;6.83;4.40;;;4.60;99.90;;;;;;4959987;28;20429;-59
2021/10/23 08:26:36;;;;;;;8.60;5.53;;;4.70;99.90;;;;;;4971748;28;20166;-58
2021/10/23 08:29:02;;;;;;;7.53;4.90;;;4.80;99.90;;;;;;4977450;28;20465;-55
2021/10/23 08:31:30;;;;;;;8.40;4.87;;;4.90;99.90;;;;;;4934217;28;1100292;-59
2021/10/23 08:33:57;;;;;;;8.57;4.40;;;4.90;99.90;;;;;;4970876;28;20428;-59
2021/10/23 08:36:23;;;;;;;10.27;5.37;;;5.00;99.90;;;;;;4972316;28;20416;-59
2021/10/23 08:38:49;;;;;;;6.93;4.40;;;5.10;99.90;;;;;;4968978;28;20452;-58
2021/10/23 08:41:15;;;;;;;11.50;4.97;;;5.20;99.90;;;;;;4962401;28;20428;-59
2021/10/23 08:43:42;;;;;;;10.37;4.90;;;5.30;99.90;;;;;;4967477;28;20528;-57
2021/10/23 08:46:13;;;;;;;9.70;4.37;;;5.40;99.90;;;;;;4961800;28;20436;-54
2021/10/23 08:48:40;;;;;;;11.00;3.90;;;5.50;99.90;;;;;;4962457;28;20417;-59
2021/10/23 08:51:07;;;;;;;6.03;3.23;;;5.60;99.90;;;;;;4968489;28;20448;-59
2021/10/23 08:53:33;;;;;;;13.60;4.03;;;5.70;99.90;;;;;;4966315;28;20686;-60
2021/10/23 08:55:59;;;;;;;5.43;3.33;;;5.80;99.90;;;;;;4967588;28;20547;-58
2021/10/23 08:58:24;;;;;;;7.40;3.90;;;5.90;99.90;;;;;;4967503;28;20464;-60
2021/10/23 09:00:51;;;;;;;5.00;3.47;;;6.10;99.90;;;;;;4969665;28;20174;-57
2021/10/23 09:03:17;;;;;;;7.93;3.40;;;6.20;99.90;;;;;;4967565;28;20632;-60
2021/10/23 09:05:43;;;;;;;6.60;3.43;;;6.40;99.90;;;;;;4967247;28;20930;-57
2021/10/23 09:08:16;;;;;;;8.30;3.40;;;6.60;99.90;;;;;;4978375;28;20535;-58
2021/10/23 09:10:47;;;;;;;5.60;3.03;;;6.80;99.90;;;;;;4969977;28;20285;-58
2021/10/23 09:13:24;;;;;;;5.40;3.47;;;6.90;98.40;;;;;;4967303;28;21060;-58
2021/10/23 09:15:50;;;;;;;7.00;3.50;;;7.10;97.50;;;;;;4967861;28;20790;-59
2021/10/23 09:18:15;;;;;;;6.20;4.33;;;7.20;97.60;;;;;;4973189;28;20433;-57
2021/10/23 09:20:43;;;;;;;6.87;3.57;;;7.40;97.60;;;;;;4966689;28;20261;-58
2021/10/23 09:23:17;;;;;;;8.00;3.80;;;7.60;97.50;;;;;;4966287;28;20222;-56
2021/10/23 09:25:44;;;;;;;5.70;4.27;;;7.70;97.40;;;;;;4970190;28;20436;-56
2021/10/23 09:28:15;;;;;;;6.80;3.87;;;7.90;96.00;;;;;;4971572;28;20453;-56
2021/10/23 09:30:49;;;;;;;7.67;3.70;;;8.10;96.70;;;;;;4964091;28;20433;-57
2021/10/23 09:33:19;;;;;;;7.57;3.87;;;8.30;95.80;;;;;;4964705;28;20456;-59
2021/10/23 09:35:56;;;;;;;10.47;3.37;;;8.30;93.70;;;;;;4976964;28;20441;-58
2021/10/23 09:38:24;;;;;;;8.27;4.10;;;8.30;93.30;;;;;;4974549;28;20458;-54
2021/10/23 09:40:53;;;;;;;7.67;3.30;;;8.40;92.90;;;;;;4965377;28;20445;-60
2021/10/23 09:43:30;;;;;;;8.57;3.53;;;8.60;89.80;;;;;;4972819;28;20451;-59
2021/10/23 09:45:56;;;;;;;6.40;3.60;;;8.50;85.00;;;;;;4974097;28;20425;-55
2021/10/23 09:48:42;;;;;;;11.47;3.10;;;8.50;85.20;;;;;;4966809;28;20512;-57
2021/10/23 09:51:23;;;;;;;10.17;3.00;;;8.50;84.70;;;;;;4973706;28;20432;-56
2021/10/23 09:53:54;;;;;;;7.67;4.00;;;8.60;80.30;;;;;;4967302;28;20435;-62
2021/10/23 09:56:24;;;;;;;9.23;3.20;;;8.50;80.30;;;;;;4962994;28;21001;-52
2021/10/23 09:58:57;;;;;;;5.37;2.50;;;8.40;79.10;;;;;;4964715;28;21021;-57
2021/10/23 10:01:33;;;;;;;3.70;1.60;;;8.40;75.10;;;;;;4967238;28;20515;-56
2021/10/23 10:04:07;;;;;;;2.50;1.97;;;8.40;73.90;;;;;;4971331;28;20428;-58
2021/10/23 10:06:43;;;;;;;2.00;1.67;;;8.60;69.40;;;;;;4965840;28;20524;-57
2021/10/23 10:09:12;;;;;;;2.00;1.43;;;8.80;66.70;;;;;;4973137;28;20400;-57
2021/10/23 10:11:38;;;;;;;1.30;1.20;;;8.90;63.70;;;;;;4971855;28;21055;-56
2021/10/23 10:14:07;;;;;;;7.23;1.70;;;8.90;61.10;;;;;;4972256;28;20429;-57
2021/10/23 10:16:33;;;;;;;5.47;1.90;;;8.80;60.10;;;;;;4968310;28;20432;-57
2021/10/23 10:18:59;;;;;;;2.00;1.80;;;8.80;59.10;;;;;;4973586;28;20429;-57
2021/10/23 10:21:26;;;;;;;1.60;1.37;;;9.00;59.80;;;;;;4973004;28;20543;-62
2021/10/23 10:23:54;;;;;;;2.23;1.40;;;9.30;60.20;;;;;;4967357;28;20256;-57
2021/10/23 10:26:33;;;;;;;8.10;1.90;;;9.60;60.20;;;;;;4973881;28;20755;-60
2021/10/23 10:31:44;;;;;;;1.60;1.47;;;10.30;57.10;;;;;;4992102;28;20440;-59
2021/10/23 10:34:13;;;;;;;5.63;1.70;;;10.60;55.90;;;;;;4989591;28;20465;-59
2021/10/23 10:43:18;;;;;;;6.13;2.73;;;11.20;52.40;;;;;;4970740;28;20465;-58
2021/10/23 10:45:46;;;;;;;3.20;1.93;;;11.40;52.40;;;;;;4951731;28;20426;-58
2021/10/23 10:48:40;;;;;;;4.70;2.73;;;11.60;52.20;;;;;;4974208;28;20727;-57
2021/10/23 10:51:07;;;;;;;5.47;1.50;;;11.80;50.90;;;;;;4983291;28;20469;-60
2021/10/23 10:53:39;;;;;;;3.07;1.90;;;12.00;50.00;;;;;;4991780;28;20453;-60
2021/10/23 10:56:07;;;;;;;1.80;1.57;;;12.30;49.70;;;;;;4992367;28;20734;-58
2021/10/23 10:58:52;;;;;;;1.80;1.70;;;12.50;48.70;;;;;;4972129;28;20409;-59
2021/10/23 11:01:32;;;;;;;2.40;1.70;;;12.90;47.70;;;;;;4984415;28;20557;-57
2021/10/23 11:04:10;;;;;;;1.80;1.70;;;13.30;46.60;;;;;;4966470;28;20504;-59
2021/10/23 11:06:35;;;;;;;2.17;1.77;;;13.70;45.80;;;;;;4975685;28;20448;-60
2021/10/23 11:09:20;;;;;;;2.00;1.90;;;14.10;44.60;;;;;;4973255;28;20409;-58
2021/10/23 11:11:46;;;;;;;2.53;2.20;;;14.50;44.10;;;;;;4971510;28;20190;-58
2021/10/23 11:16:46;;;;;;;4.10;2.93;;;15.40;42.00;;;;;;4965426;28;20478;-58
2021/10/23 11:19:39;;;;;;;1.97;1.70;;;15.80;41.50;;;;;;4969678;28;20913;-59
2021/10/23 11:22:11;;;;;;;1.40;1.30;;;16.50;41.80;;;;;;4964142;28;20677;-57
2021/10/23 11:24:41;;;;;;;2.50;1.87;;;17.20;40.10;;;;;;4968292;28;20444;-59
2021/10/23 11:27:06;;;;;;;2.43;1.77;;;17.70;39.40;;;;;;4962611;28;20429;-59
2021/10/23 11:29:32;;;;;;;2.73;2.20;;;18.30;38.80;;;;;;4968595;28;20426;-60
2021/10/23 11:31:59;;;;;;;1.90;1.50;;;18.70;37.90;;;;;;4966054;28;20586;-59
2021/10/23 11:34:29;;;;;;;2.00;1.10;;;19.10;36.80;;;;;;4968020;28;20511;-58
2021/10/23 11:37:11;;;;;;;4.30;3.10;;;19.50;35.50;;;;;;4969170;28;20766;-60
2021/10/23 11:39:56;;;;;;;4.07;3.40;;;19.70;35.30;;;;;;4968991;28;20571;-61
2021/10/23 11:42:22;;;;;;;2.97;1.63;;;20.10;34.90;;;;;;4968226;28;20460;-59
2021/10/23 11:44:53;;;;;;;4.00;1.63;;;20.50;34.20;;;;;;4955680;28;20433;-59
2021/10/23 11:47:25;;;;;;;2.60;1.67;;;20.90;33.50;;;;;;4967902;28;20181;-60
2021/10/23 11:49:51;;;;;;;3.20;1.90;;;21.20;33.20;;;;;;4969440;28;20217;-59
2021/10/23 11:52:24;;;;;;;2.63;1.70;;;21.50;32.70;;;;;;4969580;28;20226;-59
2021/10/23 11:54:50;;;;;;;7.95;5.15;;;21.80;32.60;;;;;;4954323;28;20796;-60
2021/10/23 11:57:36;;;;;;;7.47;3.97;;;22.20;32.00;;;;;;4973422;28;20185;-60
2021/10/23 12:00:04;;;;;;;2.28;1.35;;;22.50;30.70;;;;;;4971058;28;20177;-58
2021/10/23 12:02:48;;;;;;;2.30;2.05;;;22.60;30.20;;;;;;4972197;28;20216;-59
2021/10/23 12:05:29;;;;;;;1.88;1.00;;;22.60;30.80;;;;;;4963765;28;20257;-59
2021/10/23 12:08:18;;;;;;;1.63;1.05;;;22.80;30.40;;;;;;4954368;29;20162;-59
2021/10/23 12:11:09;;;;;;;1.35;0.90;;;23.10;30.30;;;;;;4965472;28;20184;-59
2021/10/23 12:14:15;;;;;;;1.58;1.05;;;23.40;30.00;;;;;;4963821;28;20411;-59
2021/10/23 12:16:48;;;;;;;2.85;1.25;;;23.60;29.60;;;;;;4967518;28;20186;-60
2021/10/23 12:19:19;;;;;;;2.00;1.10;;;23.80;29.20;;;;;;4972829;28;20188;-59
2021/10/23 12:21:47;;;;;;;1.60;1.00;;;23.70;29.30;;;;;;4967470;28;20219;-60
2021/10/23 12:24:17;;;;;;;1.30;1.20;;;23.80;29.60;;;;;;4953619;28;20170;-59
2021/10/23 12:26:58;;;;;;;1.55;1.30;;;24.10;29.50;;;;;;4968590;28;20172;-59
2021/10/23 12:29:32;;;;;;;1.40;1.13;;;24.30;29.30;;;;;;4972704;28;20487;-60
2021/10/23 12:32:08;;;;;;;1.38;1.27;;;24.60;29.00;;;;;;4988355;23;20216;-61
2021/10/23 12:34:55;;;;;;;1.58;1.40;;;24.60;28.40;;;;;;4985649;28;20189;-62
2021/10/23 12:37:27;;;;;;;2.03;1.30;;;24.80;28.40;;;;;;4990793;28;20210;-62
2021/10/23 12:40:11;;;;;;;1.98;1.40;;;24.80;28.00;;;;;;4978387;28;20180;-61
2021/10/23 12:42:38;;;;;;;2.42;1.13;;;24.40;27.80;;;;;;4976305;28;20195;-59
2021/10/23 12:45:07;;;;;;;2.00;1.58;;;24.10;29.00;;;;;;4987605;28;20189;-61
2021/10/23 12:47:33;;;;;;;1.10;1.10;;;24.00;28.70;;;;;;4987907;28;20188;-61
2021/10/23 12:49:59;;;;;;;4.07;1.50;;;23.80;28.50;;;;;;4972678;28;20436;-60
2021/10/23 12:52:24;;;;;;;2.45;1.30;;;23.10;28.30;;;;;;4974519;28;20722;-61
2021/10/23 12:54:50;;;;;;;4.23;1.80;;;22.20;29.40;;;;;;4990056;28;20185;-61
2021/10/23 12:57:16;;;;;;;1.50;1.40;;;21.30;30.00;;;;;;4985833;28;20573;-60
2021/10/23 12:59:42;;;;;;;2.87;1.47;;;20.40;31.20;;;;;;4972316;28;20174;-58
2021/10/23 13:02:07;;;;;;;3.20;1.80;;;20.10;32.50;;;;;;4974868;28;20225;-60
2021/10/23 13:04:33;;;;;;;2.03;1.40;;;20.10;33.20;;;;;;4987047;28;20276;-60